sensor_id;sensor_type;location;lat;lon;timestamp;temperature;humidity
17152;DHT22;8691;50.828;4.700;2023-08-07T00:00:28;11.80;99.90
17152;DHT22;8691;50.828;4.700;2023-08-07T00:02:55;11.70;99.90
17152;DHT22;8691;50.828;4.700;2023-08-07T00:05:21;11.70;99.90
17152;DHT22;8691;50.828;4.700;2023-08-07T00:07:48;11.60;99.90
17152;DHT22;8691;50.828;4.700;2023-08-07T00:10:15;11.60;99.90
17152;DHT22;8691;50.828;4.700;2023-08-07T00:12:43;11.60;99.90
17152;DHT22;8691;50.828;4.700;2023-08-07T00:15:10;11.60;99.90
17152;DHT22;8691;50.828;4.700;2023-08-07T00:17:37;11.60;99.90
17152;DHT22;8691;50.828;4.700;2023-08-07T00:20:04;11.70;99.90
17152;DHT22;8691;50.828;4.700;2023-08-07T00:22:31;11.80;99.90
17152;DHT22;8691;50.828;4.700;2023-08-07T00:24:58;11.80;99.90
17152;DHT22;8691;50.828;4.700;2023-08-07T00:27:25;11.70;99.90
17152;DHT22;8691;50.828;4.700;2023-08-07T00:29:52;11.70;99.90
17152;DHT22;8691;50.828;4.700;2023-08-07T00:32:19;11.70;99.90
17152;DHT22;8691;50.828;4.700;2023-08-07T00:34:47;11.50;99.90
17152;DHT22;8691;50.828;4.700;2023-08-07T00:37:13;11.50;99.90
17152;DHT22;8691;50.828;4.700;2023-08-07T00:39:40;11.50;99.90
17152;DHT22;8691;50.828;4.700;2023-08-07T00:42:07;11.40;99.90
17152;DHT22;8691;50.828;4.700;2023-08-07T00:44:34;11.40;99.90
17152;DHT22;8691;50.828;4.700;2023-08-07T00:47:01;11.40;99.90
17152;DHT22;8691;50.828;4.700;2023-08-07T00:49:28;11.40;99.90
17152;DHT22;8691;50.828;4.700;2023-08-07T00:51:54;11.30;99.90
17152;DHT22;8691;50.828;4.700;2023-08-07T00:54:21;11.30;99.90
17152;DHT22;8691;50.828;4.700;2023-08-07T00:56:48;11.30;99.90
17152;DHT22;8691;50.828;4.700;2023-08-07T00:59:16;11.30;99.90
17152;DHT22;8691;50.828;4.700;2023-08-07T01:01:43;11.30;99.90
17152;DHT22;8691;50.828;4.700;2023-08-07T01:04:10;11.30;99.90
17152;DHT22;8691;50.828;4.700;2023-08-07T01:06:37;11.20;99.90
17152;DHT22;8691;50.828;4.700;2023-08-07T01:09:04;11.30;99.90
17152;DHT22;8691;50.828;4.700;2023-08-07T01:11:49;11.20;99.90
17152;DHT22;8691;50.828;4.700;2023-08-07T01:16:52;11.20;99.90
17152;DHT22;8691;50.828;4.700;2023-08-07T01:19:27;11.20;99.90
17152;DHT22;8691;50.828;4.700;2023-08-07T01:22:10;11.20;99.90
17152;DHT22;8691;50.828;4.700;2023-08-07T01:24:37;11.20;99.90
17152;DHT22;8691;50.828;4.700;2023-08-07T01:29:54;11.20;99.90
17152;DHT22;8691;50.828;4.700;2023-08-07T01:32:13;11.20;99.90
17152;DHT22;8691;50.828;4.700;2023-08-07T01:34:39;11.20;99.90
17152;DHT22;8691;50.828;4.700;2023-08-07T01:37:06;11.20;99.90
17152;DHT22;8691;50.828;4.700;2023-08-07T01:39:33;11.20;99.90
17152;DHT22;8691;50.828;4.700;2023-08-07T01:42:00;11.20;99.90
17152;DHT22;8691;50.828;4.700;2023-08-07T01:44:26;11.20;99.90
17152;DHT22;8691;50.828;4.700;2023-08-07T01:46:53;11.20;99.90
17152;DHT22;8691;50.828;4.700;2023-08-07T01:49:21;11.20;99.90
17152;DHT22;8691;50.828;4.700;2023-08-07T01:51:48;11.20;99.90
17152;DHT22;8691;50.828;4.700;2023-08-07T01:54:15;11.10;99.90
17152;DHT22;8691;50.828;4.700;2023-08-07T01:56:42;11.10;99.90
17152;DHT22;8691;50.828;4.700;2023-08-07T01:59:08;11.10;99.90
17152;DHT22;8691;50.828;4.700;2023-08-07T02:01:35;11.10;99.90
17152;DHT22;8691;50.828;4.700;2023-08-07T02:04:02;11.10;99.90
17152;DHT22;8691;50.828;4.700;2023-08-07T02:06:29;11.10;99.90
17152;DHT22;8691;50.828;4.700;2023-08-07T02:08:56;11.10;99.90
17152;DHT22;8691;50.828;4.700;2023-08-07T02:11:22;11.00;99.90
17152;DHT22;8691;50.828;4.700;2023-08-07T02:13:49;11.00;99.90
17152;DHT22;8691;50.828;4.700;2023-08-07T02:16:17;11.00;99.90
17152;DHT22;8691;50.828;4.700;2023-08-07T02:18:44;11.00;99.90
17152;DHT22;8691;50.828;4.700;2023-08-07T02:21:11;11.00;99.90
17152;DHT22;8691;50.828;4.700;2023-08-07T02:23:39;10.90;99.90
17152;DHT22;8691;50.828;4.700;2023-08-07T02:26:06;10.90;99.90
17152;DHT22;8691;50.828;4.700;2023-08-07T02:28:32;10.90;99.90
17152;DHT22;8691;50.828;4.700;2023-08-07T02:30:59;10.90;99.90
17152;DHT22;8691;50.828;4.700;2023-08-07T02:33:26;10.90;99.90
17152;DHT22;8691;50.828;4.700;2023-08-07T02:35:53;10.90;99.90
17152;DHT22;8691;50.828;4.700;2023-08-07T02:38:20;10.90;99.90
17152;DHT22;8691;50.828;4.700;2023-08-07T02:40:47;10.80;99.90
17152;DHT22;8691;50.828;4.700;2023-08-07T02:43:14;10.80;99.90
17152;DHT22;8691;50.828;4.700;2023-08-07T02:45:41;10.80;99.90
17152;DHT22;8691;50.828;4.700;2023-08-07T02:48:09;10.80;99.90
17152;DHT22;8691;50.828;4.700;2023-08-07T02:50:36;10.80;99.90
17152;DHT22;8691;50.828;4.700;2023-08-07T02:53:03;10.70;99.90
17152;DHT22;8691;50.828;4.700;2023-08-07T02:55:30;10.70;99.90
17152;DHT22;8691;50.828;4.700;2023-08-07T02:57:57;10.70;99.90
17152;DHT22;8691;50.828;4.700;2023-08-07T03:00:23;10.70;99.90
17152;DHT22;8691;50.828;4.700;2023-08-07T03:02:50;10.70;99.90
17152;DHT22;8691;50.828;4.700;2023-08-07T03:05:18;10.70;99.90
17152;DHT22;8691;50.828;4.700;2023-08-07T03:07:45;10.70;99.90
17152;DHT22;8691;50.828;4.700;2023-08-07T03:10:12;10.60;99.90
17152;DHT22;8691;50.828;4.700;2023-08-07T03:12:39;10.70;99.90
17152;DHT22;8691;50.828;4.700;2023-08-07T03:15:06;10.60;99.90
17152;DHT22;8691;50.828;4.700;2023-08-07T03:17:33;10.60;99.90
17152;DHT22;8691;50.828;4.700;2023-08-07T03:20:00;10.60;99.90
17152;DHT22;8691;50.828;4.700;2023-08-07T03:22:27;10.50;99.90
17152;DHT22;8691;50.828;4.700;2023-08-07T03:24:54;10.60;99.90
17152;DHT22;8691;50.828;4.700;2023-08-07T03:27:21;10.60;99.90
17152;DHT22;8691;50.828;4.700;2023-08-07T03:29:48;10.50;99.90
17152;DHT22;8691;50.828;4.700;2023-08-07T03:32:17;10.40;99.90
17152;DHT22;8691;50.828;4.700;2023-08-07T03:34:43;10.40;99.90
17152;DHT22;8691;50.828;4.700;2023-08-07T03:37:10;10.40;99.90
17152;DHT22;8691;50.828;4.700;2023-08-07T03:39:37;10.50;99.90
17152;DHT22;8691;50.828;4.700;2023-08-07T03:42:04;10.50;99.90
17152;DHT22;8691;50.828;4.700;2023-08-07T03:44:31;10.60;99.90
17152;DHT22;8691;50.828;4.700;2023-08-07T03:46:58;10.80;99.90
17152;DHT22;8691;50.828;4.700;2023-08-07T03:49:25;10.90;99.90
17152;DHT22;8691;50.828;4.700;2023-08-07T03:51:52;11.10;99.90
17152;DHT22;8691;50.828;4.700;2023-08-07T03:54:18;11.10;99.90
17152;DHT22;8691;50.828;4.700;2023-08-07T03:56:45;11.10;99.90
17152;DHT22;8691;50.828;4.700;2023-08-07T03:59:12;11.20;99.90
17152;DHT22;8691;50.828;4.700;2023-08-07T04:01:39;11.20;99.90
17152;DHT22;8691;50.828;4.700;2023-08-07T04:04:05;11.30;99.90
17152;DHT22;8691;50.828;4.700;2023-08-07T04:06:32;11.30;99.90
17152;DHT22;8691;50.828;4.700;2023-08-07T04:08:59;11.40;99.90
17152;DHT22;8691;50.828;4.700;2023-08-07T04:11:26;11.40;99.90
17152;DHT22;8691;50.828;4.700;2023-08-07T04:13:53;11.40;99.90
17152;DHT22;8691;50.828;4.700;2023-08-07T04:16:20;11.40;99.90
17152;DHT22;8691;50.828;4.700;2023-08-07T04:18:47;11.50;99.90
17152;DHT22;8691;50.828;4.700;2023-08-07T04:21:14;11.50;99.90
17152;DHT22;8691;50.828;4.700;2023-08-07T04:23:41;11.50;99.90
17152;DHT22;8691;50.828;4.700;2023-08-07T04:26:08;11.60;99.90
17152;DHT22;8691;50.828;4.700;2023-08-07T04:28:35;11.60;99.90
17152;DHT22;8691;50.828;4.700;2023-08-07T04:31:02;11.50;99.90
17152;DHT22;8691;50.828;4.700;2023-08-07T04:33:28;11.60;99.90
17152;DHT22;8691;50.828;4.700;2023-08-07T04:35:56;11.60;99.90
17152;DHT22;8691;50.828;4.700;2023-08-07T04:38:23;11.50;99.90
17152;DHT22;8691;50.828;4.700;2023-08-07T04:40:50;11.60;99.90
17152;DHT22;8691;50.828;4.700;2023-08-07T04:43:17;11.60;99.90
17152;DHT22;8691;50.828;4.700;2023-08-07T04:45:45;11.70;99.90
17152;DHT22;8691;50.828;4.700;2023-08-07T04:48:12;11.70;99.90
17152;DHT22;8691;50.828;4.700;2023-08-07T04:50:40;11.80;99.90
17152;DHT22;8691;50.828;4.700;2023-08-07T04:53:06;11.80;99.90
17152;DHT22;8691;50.828;4.700;2023-08-07T04:55:33;11.90;99.90
17152;DHT22;8691;50.828;4.700;2023-08-07T04:58:01;12.20;99.90
17152;DHT22;8691;50.828;4.700;2023-08-07T05:00:28;12.10;99.90
17152;DHT22;8691;50.828;4.700;2023-08-07T05:02:56;12.30;99.90
17152;DHT22;8691;50.828;4.700;2023-08-07T05:05:22;12.20;99.90
17152;DHT22;8691;50.828;4.700;2023-08-07T05:07:49;12.40;99.90
17152;DHT22;8691;50.828;4.700;2023-08-07T05:10:16;12.40;99.90
17152;DHT22;8691;50.828;4.700;2023-08-07T05:12:43;12.40;99.90
17152;DHT22;8691;50.828;4.700;2023-08-07T05:15:10;12.50;99.90
17152;DHT22;8691;50.828;4.700;2023-08-07T05:17:37;12.50;99.90
17152;DHT22;8691;50.828;4.700;2023-08-07T05:20:04;12.50;99.90
17152;DHT22;8691;50.828;4.700;2023-08-07T05:22:31;12.40;99.90
17152;DHT22;8691;50.828;4.700;2023-08-07T05:24:58;12.40;99.90
17152;DHT22;8691;50.828;4.700;2023-08-07T05:27:25;12.40;99.90
17152;DHT22;8691;50.828;4.700;2023-08-07T05:29:52;12.40;99.90
17152;DHT22;8691;50.828;4.700;2023-08-07T05:32:19;12.40;99.90
17152;DHT22;8691;50.828;4.700;2023-08-07T05:34:46;12.40;99.90
17152;DHT22;8691;50.828;4.700;2023-08-07T05:37:13;12.60;99.90
17152;DHT22;8691;50.828;4.700;2023-08-07T05:39:40;12.60;99.90
17152;DHT22;8691;50.828;4.700;2023-08-07T05:42:07;12.70;99.90
17152;DHT22;8691;50.828;4.700;2023-08-07T05:44:34;12.90;99.90
17152;DHT22;8691;50.828;4.700;2023-08-07T05:47:01;13.60;99.90
17152;DHT22;8691;50.828;4.700;2023-08-07T05:49:28;14.60;99.90
17152;DHT22;8691;50.828;4.700;2023-08-07T05:51:56;16.20;99.90
17152;DHT22;8691;50.828;4.700;2023-08-07T05:54:23;16.20;99.90
17152;DHT22;8691;50.828;4.700;2023-08-07T05:56:49;17.50;99.90
17152;DHT22;8691;50.828;4.700;2023-08-07T05:59:16;19.00;99.90
17152;DHT22;8691;50.828;4.700;2023-08-07T06:01:43;20.60;99.90
17152;DHT22;8691;50.828;4.700;2023-08-07T06:04:09;21.40;99.90
17152;DHT22;8691;50.828;4.700;2023-08-07T06:06:36;22.10;99.90
17152;DHT22;8691;50.828;4.700;2023-08-07T06:09:03;23.30;98.50
17152;DHT22;8691;50.828;4.700;2023-08-07T06:11:30;23.50;98.80
17152;DHT22;8691;50.828;4.700;2023-08-07T06:13:57;24.10;97.00
17152;DHT22;8691;50.828;4.700;2023-08-07T06:16:24;24.20;95.60
17152;DHT22;8691;50.828;4.700;2023-08-07T06:18:51;24.30;96.20
17152;DHT22;8691;50.828;4.700;2023-08-07T06:21:18;24.80;95.20
17152;DHT22;8691;50.828;4.700;2023-08-07T06:23:45;25.00;95.60
17152;DHT22;8691;50.828;4.700;2023-08-07T06:26:13;25.60;94.00
17152;DHT22;8691;50.828;4.700;2023-08-07T06:28:39;25.60;93.90
17152;DHT22;8691;50.828;4.700;2023-08-07T06:31:07;25.90;92.00
17152;DHT22;8691;50.828;4.700;2023-08-07T06:33:33;25.50;93.20
17152;DHT22;8691;50.828;4.700;2023-08-07T06:36:00;25.50;93.50
17152;DHT22;8691;50.828;4.700;2023-08-07T06:38:27;25.40;92.80
17152;DHT22;8691;50.828;4.700;2023-08-07T06:40:54;25.60;93.40
17152;DHT22;8691;50.828;4.700;2023-08-07T06:43:21;26.10;92.30
17152;DHT22;8691;50.828;4.700;2023-08-07T06:45:55;26.80;90.80
17152;DHT22;8691;50.828;4.700;2023-08-07T06:48:22;26.80;92.10
17152;DHT22;8691;50.828;4.700;2023-08-07T06:50:50;27.20;90.60
17152;DHT22;8691;50.828;4.700;2023-08-07T06:53:16;27.20;90.60
17152;DHT22;8691;50.828;4.700;2023-08-07T06:55:43;27.80;86.20
17152;DHT22;8691;50.828;4.700;2023-08-07T06:58:10;27.50;87.70
17152;DHT22;8691;50.828;4.700;2023-08-07T07:00:37;27.40;87.30
17152;DHT22;8691;50.828;4.700;2023-08-07T07:03:04;27.40;87.30
17152;DHT22;8691;50.828;4.700;2023-08-07T07:05:31;27.60;88.00
17152;DHT22;8691;50.828;4.700;2023-08-07T07:07:58;27.60;87.40
17152;DHT22;8691;50.828;4.700;2023-08-07T07:10:25;27.60;85.80
17152;DHT22;8691;50.828;4.700;2023-08-07T07:12:53;27.60;84.70
17152;DHT22;8691;50.828;4.700;2023-08-07T07:15:20;27.50;84.60
17152;DHT22;8691;50.828;4.700;2023-08-07T07:17:47;27.70;84.60
17152;DHT22;8691;50.828;4.700;2023-08-07T07:20:14;27.30;87.10
17152;DHT22;8691;50.828;4.700;2023-08-07T07:22:41;27.40;87.80
17152;DHT22;8691;50.828;4.700;2023-08-07T07:25:08;27.80;84.20
17152;DHT22;8691;50.828;4.700;2023-08-07T07:27:35;27.70;87.40
17152;DHT22;8691;50.828;4.700;2023-08-07T07:30:02;28.20;81.80
17152;DHT22;8691;50.828;4.700;2023-08-07T07:32:29;28.20;81.90
17152;DHT22;8691;50.828;4.700;2023-08-07T07:34:56;28.00;83.60
17152;DHT22;8691;50.828;4.700;2023-08-07T07:37:24;28.30;81.20
17152;DHT22;8691;50.828;4.700;2023-08-07T07:39:51;28.30;81.20
17152;DHT22;8691;50.828;4.700;2023-08-07T07:42:18;28.20;80.70
17152;DHT22;8691;50.828;4.700;2023-08-07T07:44:44;28.20;83.70
17152;DHT22;8691;50.828;4.700;2023-08-07T07:47:11;28.70;79.50
17152;DHT22;8691;50.828;4.700;2023-08-07T07:49:38;28.90;80.10
17152;DHT22;8691;50.828;4.700;2023-08-07T07:52:05;28.50;82.70
17152;DHT22;8691;50.828;4.700;2023-08-07T07:54:32;29.10;80.80
17152;DHT22;8691;50.828;4.700;2023-08-07T07:56:59;29.60;77.70
17152;DHT22;8691;50.828;4.700;2023-08-07T07:59:26;28.60;76.30
17152;DHT22;8691;50.828;4.700;2023-08-07T08:01:53;28.00;76.90
17152;DHT22;8691;50.828;4.700;2023-08-07T08:04:20;27.90;81.60
17152;DHT22;8691;50.828;4.700;2023-08-07T08:06:47;27.90;81.50
17152;DHT22;8691;50.828;4.700;2023-08-07T08:09:16;28.00;80.90
17152;DHT22;8691;50.828;4.700;2023-08-07T08:11:43;28.00;81.90
17152;DHT22;8691;50.828;4.700;2023-08-07T08:14:11;28.60;78.40
17152;DHT22;8691;50.828;4.700;2023-08-07T08:16:38;28.60;77.70
17152;DHT22;8691;50.828;4.700;2023-08-07T08:19:05;27.80;76.90
17152;DHT22;8691;50.828;4.700;2023-08-07T08:21:32;26.10;81.80
17152;DHT22;8691;50.828;4.700;2023-08-07T08:23:59;26.10;81.80
17152;DHT22;8691;50.828;4.700;2023-08-07T08:26:26;24.90;90.40
17152;DHT22;8691;50.828;4.700;2023-08-07T08:28:53;25.00;88.80
17152;DHT22;8691;50.828;4.700;2023-08-07T08:31:20;24.60;87.60
17152;DHT22;8691;50.828;4.700;2023-08-07T08:33:47;23.70;91.10
17152;DHT22;8691;50.828;4.700;2023-08-07T08:36:15;25.80;87.50
17152;DHT22;8691;50.828;4.700;2023-08-07T08:38:41;25.80;87.30
17152;DHT22;8691;50.828;4.700;2023-08-07T08:41:08;25.80;84.20
17152;DHT22;8691;50.828;4.700;2023-08-07T08:43:35;24.80;87.40
17152;DHT22;8691;50.828;4.700;2023-08-07T08:46:03;25.50;88.10
17152;DHT22;8691;50.828;4.700;2023-08-07T08:48:29;26.80;81.60
17152;DHT22;8691;50.828;4.700;2023-08-07T08:50:56;27.00;81.90
17152;DHT22;8691;50.828;4.700;2023-08-07T08:53:23;27.80;79.80
17152;DHT22;8691;50.828;4.700;2023-08-07T08:55:50;28.60;78.10
17152;DHT22;8691;50.828;4.700;2023-08-07T08:58:17;29.30;73.30
17152;DHT22;8691;50.828;4.700;2023-08-07T09:00:44;29.70;70.00
17152;DHT22;8691;50.828;4.700;2023-08-07T09:03:11;29.40;71.60
17152;DHT22;8691;50.828;4.700;2023-08-07T09:05:38;29.30;72.10
17152;DHT22;8691;50.828;4.700;2023-08-07T09:08:05;29.60;68.80
17152;DHT22;8691;50.828;4.700;2023-08-07T09:10:31;28.90;69.40
17152;DHT22;8691;50.828;4.700;2023-08-07T09:13:02;27.00;74.80
17152;DHT22;8691;50.828;4.700;2023-08-07T09:15:32;24.90;84.00
17152;DHT22;8691;50.828;4.700;2023-08-07T09:17:59;24.60;86.10
17152;DHT22;8691;50.828;4.700;2023-08-07T09:20:26;24.60;86.00
17152;DHT22;8691;50.828;4.700;2023-08-07T09:22:53;24.80;88.00
17152;DHT22;8691;50.828;4.700;2023-08-07T09:25:32;25.70;87.30
17152;DHT22;8691;50.828;4.700;2023-08-07T09:28:01;27.10;83.50
17152;DHT22;8691;50.828;4.700;2023-08-07T09:30:28;28.20;77.20
17152;DHT22;8691;50.828;4.700;2023-08-07T09:32:58;27.60;76.80
17152;DHT22;8691;50.828;4.700;2023-08-07T09:35:25;26.50;80.40
17152;DHT22;8691;50.828;4.700;2023-08-07T09:37:52;27.70;74.20
17152;DHT22;8691;50.828;4.700;2023-08-07T09:40:19;26.40;79.90
17152;DHT22;8691;50.828;4.700;2023-08-07T09:42:49;26.40;79.20
17152;DHT22;8691;50.828;4.700;2023-08-07T09:45:25;25.40;80.70
17152;DHT22;8691;50.828;4.700;2023-08-07T09:48:01;24.30;86.80
17152;DHT22;8691;50.828;4.700;2023-08-07T09:50:27;24.60;90.30
17152;DHT22;8691;50.828;4.700;2023-08-07T09:52:55;27.60;79.90
17152;DHT22;8691;50.828;4.700;2023-08-07T09:55:22;27.60;79.60
17152;DHT22;8691;50.828;4.700;2023-08-07T09:57:49;28.10;76.70
17152;DHT22;8691;50.828;4.700;2023-08-07T10:00:16;28.10;79.30
17152;DHT22;8691;50.828;4.700;2023-08-07T10:02:43;28.80;73.20
17152;DHT22;8691;50.828;4.700;2023-08-07T10:05:13;28.80;71.10
17152;DHT22;8691;50.828;4.700;2023-08-07T10:07:39;29.10;69.20
17152;DHT22;8691;50.828;4.700;2023-08-07T10:10:06;29.30;68.70
17152;DHT22;8691;50.828;4.700;2023-08-07T10:12:33;29.20;69.30
17152;DHT22;8691;50.828;4.700;2023-08-07T10:15:00;28.70;69.50
17152;DHT22;8691;50.828;4.700;2023-08-07T10:17:28;27.40;70.80
17152;DHT22;8691;50.828;4.700;2023-08-07T10:19:55;25.90;75.70
17152;DHT22;8691;50.828;4.700;2023-08-07T10:22:26;25.40;82.90
17152;DHT22;8691;50.828;4.700;2023-08-07T10:24:52;25.40;82.90
17152;DHT22;8691;50.828;4.700;2023-08-07T10:27:19;26.60;80.70
17152;DHT22;8691;50.828;4.700;2023-08-07T10:29:46;26.80;78.90
17152;DHT22;8691;50.828;4.700;2023-08-07T10:32:13;26.40;77.80
17152;DHT22;8691;50.828;4.700;2023-08-07T10:34:40;25.90;75.50
17152;DHT22;8691;50.828;4.700;2023-08-07T10:37:07;25.40;78.80
17152;DHT22;8691;50.828;4.700;2023-08-07T10:39:33;25.30;77.70
17152;DHT22;8691;50.828;4.700;2023-08-07T10:42:00;26.00;80.60
17152;DHT22;8691;50.828;4.700;2023-08-07T10:44:30;27.00;77.50
17152;DHT22;8691;50.828;4.700;2023-08-07T10:47:01;28.00;73.90
17152;DHT22;8691;50.828;4.700;2023-08-07T10:49:32;28.40;68.10
17152;DHT22;8691;50.828;4.700;2023-08-07T10:51:59;28.40;68.10
17152;DHT22;8691;50.828;4.700;2023-08-07T10:54:25;27.70;70.70
17152;DHT22;8691;50.828;4.700;2023-08-07T10:56:52;27.60;71.80
17152;DHT22;8691;50.828;4.700;2023-08-07T10:59:18;27.00;75.20
17152;DHT22;8691;50.828;4.700;2023-08-07T11:01:50;26.40;73.40
17152;DHT22;8691;50.828;4.700;2023-08-07T11:04:13;25.60;76.10
17152;DHT22;8691;50.828;4.700;2023-08-07T11:06:40;24.70;79.80
17152;DHT22;8691;50.828;4.700;2023-08-07T11:09:06;24.00;81.40
17152;DHT22;8691;50.828;4.700;2023-08-07T11:11:40;23.50;85.60
17152;DHT22;8691;50.828;4.700;2023-08-07T11:14:06;23.60;87.00
17152;DHT22;8691;50.828;4.700;2023-08-07T11:16:36;24.30;87.00
17152;DHT22;8691;50.828;4.700;2023-08-07T11:19:00;24.90;79.10
17152;DHT22;8691;50.828;4.700;2023-08-07T11:21:26;24.40;81.90
17152;DHT22;8691;50.828;4.700;2023-08-07T11:23:53;24.20;81.60
17152;DHT22;8691;50.828;4.700;2023-08-07T11:26:20;23.80;84.50
17152;DHT22;8691;50.828;4.700;2023-08-07T11:28:48;24.00;85.70
17152;DHT22;8691;50.828;4.700;2023-08-07T11:31:14;24.00;85.60
17152;DHT22;8691;50.828;4.700;2023-08-07T11:33:42;24.50;85.50
17152;DHT22;8691;50.828;4.700;2023-08-07T11:36:15;24.60;83.80
17152;DHT22;8691;50.828;4.700;2023-08-07T11:38:39;24.70;84.30
17152;DHT22;8691;50.828;4.700;2023-08-07T11:41:06;25.20;82.40
17152;DHT22;8691;50.828;4.700;2023-08-07T11:43:33;24.80;80.70
17152;DHT22;8691;50.828;4.700;2023-08-07T11:46:03;24.50;83.70
17152;DHT22;8691;50.828;4.700;2023-08-07T11:48:26;24.60;82.00
17152;DHT22;8691;50.828;4.700;2023-08-07T11:50:53;24.70;81.10
17152;DHT22;8691;50.828;4.700;2023-08-07T11:53:20;24.60;82.50
17152;DHT22;8691;50.828;4.700;2023-08-07T11:55:56;24.40;84.00
17152;DHT22;8691;50.828;4.700;2023-08-07T11:58:24;24.30;84.70
17152;DHT22;8691;50.828;4.700;2023-08-07T12:00:49;24.10;84.40
17152;DHT22;8691;50.828;4.700;2023-08-07T12:05:54;24.40;86.00
17152;DHT22;8691;50.828;4.700;2023-08-07T12:08:20;24.40;86.00
17152;DHT22;8691;50.828;4.700;2023-08-07T12:10:56;24.60;86.80
17152;DHT22;8691;50.828;4.700;2023-08-07T12:13:25;25.00;85.30
17152;DHT22;8691;50.828;4.700;2023-08-07T12:15:56;24.50;84.80
17152;DHT22;8691;50.828;4.700;2023-08-07T12:18:22;24.50;84.70
17152;DHT22;8691;50.828;4.700;2023-08-07T12:20:51;23.90;85.60
17152;DHT22;8691;50.828;4.700;2023-08-07T12:23:16;23.50;87.90
17152;DHT22;8691;50.828;4.700;2023-08-07T12:25:43;23.00;89.90
17152;DHT22;8691;50.828;4.700;2023-08-07T12:28:09;22.90;90.70
17152;DHT22;8691;50.828;4.700;2023-08-07T12:30:37;22.70;90.80
17152;DHT22;8691;50.828;4.700;2023-08-07T12:33:04;23.30;90.80
17152;DHT22;8691;50.828;4.700;2023-08-07T12:35:31;23.30;90.80
17152;DHT22;8691;50.828;4.700;2023-08-07T12:37:58;23.70;91.00
17152;DHT22;8691;50.828;4.700;2023-08-07T12:40:25;24.00;90.30
17152;DHT22;8691;50.828;4.700;2023-08-07T12:42:52;24.60;89.30
17152;DHT22;8691;50.828;4.700;2023-08-07T12:45:19;25.00;87.20
17152;DHT22;8691;50.828;4.700;2023-08-07T12:47:45;25.20;88.10
17152;DHT22;8691;50.828;4.700;2023-08-07T12:50:12;25.60;86.30
17152;DHT22;8691;50.828;4.700;2023-08-07T12:52:39;25.80;82.70
17152;DHT22;8691;50.828;4.700;2023-08-07T12:55:07;25.30;86.40
17152;DHT22;8691;50.828;4.700;2023-08-07T12:57:34;25.30;86.30
17152;DHT22;8691;50.828;4.700;2023-08-07T13:00:00;25.10;86.50
17152;DHT22;8691;50.828;4.700;2023-08-07T13:02:27;25.00;86.70
17152;DHT22;8691;50.828;4.700;2023-08-07T13:04:54;24.80;87.20
17152;DHT22;8691;50.828;4.700;2023-08-07T13:07:21;24.60;85.40
17152;DHT22;8691;50.828;4.700;2023-08-07T13:09:48;24.20;85.90
17152;DHT22;8691;50.828;4.700;2023-08-07T13:12:14;23.60;89.00
17152;DHT22;8691;50.828;4.700;2023-08-07T13:14:41;23.30;90.40
17152;DHT22;8691;50.828;4.700;2023-08-07T13:17:08;23.10;91.00
17152;DHT22;8691;50.828;4.700;2023-08-07T13:19:35;22.80;92.10
17152;DHT22;8691;50.828;4.700;2023-08-07T13:22:02;23.10;91.80
17152;DHT22;8691;50.828;4.700;2023-08-07T13:24:29;23.30;91.40
17152;DHT22;8691;50.828;4.700;2023-08-07T13:26:56;23.50;90.60
17152;DHT22;8691;50.828;4.700;2023-08-07T13:29:23;23.40;90.60
17152;DHT22;8691;50.828;4.700;2023-08-07T13:31:50;23.60;90.80
17152;DHT22;8691;50.828;4.700;2023-08-07T13:34:17;24.00;91.10
17152;DHT22;8691;50.828;4.700;2023-08-07T13:36:44;24.60;88.60
17152;DHT22;8691;50.828;4.700;2023-08-07T13:39:11;24.60;89.20
17152;DHT22;8691;50.828;4.700;2023-08-07T13:41:37;24.70;86.10
17152;DHT22;8691;50.828;4.700;2023-08-07T13:44:04;24.30;88.80
17152;DHT22;8691;50.828;4.700;2023-08-07T13:46:31;24.10;90.40
17152;DHT22;8691;50.828;4.700;2023-08-07T13:48:59;24.00;90.50
17152;DHT22;8691;50.828;4.700;2023-08-07T13:51:26;23.90;91.60
17152;DHT22;8691;50.828;4.700;2023-08-07T13:53:53;23.90;91.60
17152;DHT22;8691;50.828;4.700;2023-08-07T13:56:20;24.30;91.10
17152;DHT22;8691;50.828;4.700;2023-08-07T13:58:47;24.30;91.10
17152;DHT22;8691;50.828;4.700;2023-08-07T14:01:14;24.40;89.60
17152;DHT22;8691;50.828;4.700;2023-08-07T14:03:42;23.50;91.10
17152;DHT22;8691;50.828;4.700;2023-08-07T14:06:10;23.40;91.70
17152;DHT22;8691;50.828;4.700;2023-08-07T14:08:36;23.40;91.60
17152;DHT22;8691;50.828;4.700;2023-08-07T14:11:03;23.40;92.40
17152;DHT22;8691;50.828;4.700;2023-08-07T14:13:31;23.40;92.00
17152;DHT22;8691;50.828;4.700;2023-08-07T14:15:57;23.40;91.90
17152;DHT22;8691;50.828;4.700;2023-08-07T14:18:24;23.40;92.30
17152;DHT22;8691;50.828;4.700;2023-08-07T14:20:51;23.50;92.10
17152;DHT22;8691;50.828;4.700;2023-08-07T14:23:18;23.60;91.10
17152;DHT22;8691;50.828;4.700;2023-08-07T14:25:45;23.40;90.50
17152;DHT22;8691;50.828;4.700;2023-08-07T14:28:12;23.00;91.50
17152;DHT22;8691;50.828;4.700;2023-08-07T14:30:39;22.80;92.40
17152;DHT22;8691;50.828;4.700;2023-08-07T14:33:05;22.80;92.50
17152;DHT22;8691;50.828;4.700;2023-08-07T14:35:32;22.90;92.20
17152;DHT22;8691;50.828;4.700;2023-08-07T14:37:59;22.90;92.60
17152;DHT22;8691;50.828;4.700;2023-08-07T14:40:27;23.00;92.30
17152;DHT22;8691;50.828;4.700;2023-08-07T14:42:54;23.00;92.30
17152;DHT22;8691;50.828;4.700;2023-08-07T14:45:20;23.10;92.90
17152;DHT22;8691;50.828;4.700;2023-08-07T14:47:48;23.20;92.70
17152;DHT22;8691;50.828;4.700;2023-08-07T14:50:15;23.20;92.70
17152;DHT22;8691;50.828;4.700;2023-08-07T14:52:42;23.20;92.60
17152;DHT22;8691;50.828;4.700;2023-08-07T14:55:09;23.10;91.90
17152;DHT22;8691;50.828;4.700;2023-08-07T14:57:35;23.00;92.70
17152;DHT22;8691;50.828;4.700;2023-08-07T15:00:02;23.00;92.50
17152;DHT22;8691;50.828;4.700;2023-08-07T15:02:29;22.90;92.60
17152;DHT22;8691;50.828;4.700;2023-08-07T15:04:56;22.80;93.00
17152;DHT22;8691;50.828;4.700;2023-08-07T15:07:23;22.60;93.30
17152;DHT22;8691;50.828;4.700;2023-08-07T15:09:50;22.30;93.80
17152;DHT22;8691;50.828;4.700;2023-08-07T15:12:17;22.20;94.30
17152;DHT22;8691;50.828;4.700;2023-08-07T15:14:43;22.20;94.10
17152;DHT22;8691;50.828;4.700;2023-08-07T15:17:10;22.30;93.60
17152;DHT22;8691;50.828;4.700;2023-08-07T15:19:37;22.40;93.40
17152;DHT22;8691;50.828;4.700;2023-08-07T15:22:04;22.40;93.20
17152;DHT22;8691;50.828;4.700;2023-08-07T15:24:30;22.20;93.30
17152;DHT22;8691;50.828;4.700;2023-08-07T15:26:57;22.10;93.50
17152;DHT22;8691;50.828;4.700;2023-08-07T15:29:24;22.20;93.40
17152;DHT22;8691;50.828;4.700;2023-08-07T15:31:51;22.20;93.50
17152;DHT22;8691;50.828;4.700;2023-08-07T15:34:18;22.50;93.40
17152;DHT22;8691;50.828;4.700;2023-08-07T15:36:45;22.70;94.00
17152;DHT22;8691;50.828;4.700;2023-08-07T15:39:11;23.00;92.80
17152;DHT22;8691;50.828;4.700;2023-08-07T15:41:38;22.80;93.30
17152;DHT22;8691;50.828;4.700;2023-08-07T15:44:05;22.90;92.90
17152;DHT22;8691;50.828;4.700;2023-08-07T15:46:32;23.00;92.90
17152;DHT22;8691;50.828;4.700;2023-08-07T15:48:59;22.70;92.40
17152;DHT22;8691;50.828;4.700;2023-08-07T15:51:25;22.40;93.00